Flight Track Log - Related Links

Times and Time Zones

All times are in EDT time to prevent confusion due to time zone crossing. See the VOZ960 flight status page for this flight to view local times or setup timezone preferences in your user account.

Time Position Orientation Groundspeed Altitude Reporting Facility
EDT Latitude Longitude Course Direction KTS MPH feet Rate Location/Type
Tue 01:51:38 AM -27.3850 153.1280 24° Northeast 135 155  Level FlightAware ADS-B
Tue 01:52:03 AM -27.3710 153.1370 30° Northeast 140 161 900 1,733 Climbing FlightAware ADS-B
Tue 01:52:23 AM -27.3590 153.1450 31° Northeast 164 189 1,300 1,050 Climbing FlightAware ADS-B
Tue 01:52:43 AM -27.3460 153.1580 42° Northeast 201 231 1,600 1,500 Climbing FlightAware ADS-B
Tue 01:53:03 AM -27.3320 153.1730 44° Northeast 222 255 2,300 2,229 Climbing FlightAware ADS-B
Tue 01:53:18 AM -27.3210 153.1870 49° Northeast 233 268 2,900 2,640 Climbing FlightAware ADS-B
Tue 01:53:28 AM -27.3170 153.1980 68° East 240 276 3,400 2,743 Climbing FlightAware ADS-B
Tue 01:53:53 AM -27.3230 153.2280 103° East 251 289 4,500 2,600 Climbing FlightAware ADS-B
Tue 01:53:58 AM -27.3260 153.2320 130° Southeast 250 288 4,700 2,800 Climbing FlightAware ADS-B
Tue 01:54:08 AM -27.3370 153.2410 144° Southeast 245 282 5,200 3,200 Climbing FlightAware ADS-B
Tue 01:54:13 AM -27.3430 153.2430 164° South 242 278 5,500 2,800 Climbing FlightAware ADS-B
Tue 01:54:23 AM -27.3530 153.2440 175° South 242 278 5,900 1,400 Climbing FlightAware ADS-B
Tue 01:54:43 AM -27.3760 153.2360 197° South 266 306 6,200 1,050 Climbing FlightAware ADS-B
Tue 01:55:03 AM -27.4010 153.2250 201° Southwest 299 344 6,600 1,543 Climbing FlightAware ADS-B
Tue 01:55:18 AM -27.4210 153.2170 200° South 312 359 7,100 2,400 Climbing FlightAware ADS-B
Tue 01:55:38 AM -27.4490 153.2050 201° Southwest 321 369 8,000 2,550 Climbing FlightAware ADS-B
Tue 01:55:58 AM -27.4750 153.1940 201° Southwest 332 382 8,800 2,550 Climbing FlightAware ADS-B
Tue 01:56:18 AM -27.5060 153.1800 202° Southwest 343 395 9,700 2,945 Climbing FlightAware ADS-B
Tue 01:56:53 AM -27.5590 153.1570 201° Southwest 352 405 11,500 3,257 Climbing FlightAware ADS-B
Tue 01:57:28 AM -27.6130 153.1340 201° Southwest 354 407 13,500 3,343 Climbing FlightAware ADS-B
Tue 01:58:03 AM -27.6680 153.1100 201° Southwest 366 421 15,400 3,000 Climbing FlightAware ADS-B
Tue 01:58:34 AM -27.7169 153.0884 201° Southwest 374 430 16,800 2,743 Climbing Aus ATC (RADAR)
Tue 01:58:38 AM -27.7220 153.0860 201° Southwest 384 442 17,000 2,923 Climbing FlightAware ADS-B
Tue 01:59:13 AM -27.7840 153.0590 201° Southwest 394 453 18,700 3,046 Climbing FlightAware ADS-B
Tue 01:59:43 AM -27.8359 153.0360 201° Southwest 397 457 20,300 3,150 Climbing Aus ATC (RADAR)
Tue 01:59:53 AM -27.8480 153.0310 201° Southwest 400 460 20,800 2,700 Climbing FlightAware ADS-B
Tue 02:00:23 AM -27.9040 153.0070 201° Southwest 407 468 22,100 2,585 Climbing FlightAware ADS-B
Tue 02:00:58 AM -27.9660 152.9790 202° Southwest 415 478 23,600 2,486 Climbing FlightAware ADS-B
Tue 02:01:33 AM -28.0300 152.9510 201° Southwest 421 484 25,000 2,314 Climbing FlightAware ADS-B
Tue 02:02:08 AM -28.0940 152.9230 201° Southwest 427 491 26,300 2,143 Climbing FlightAware ADS-B
Tue 02:02:43 AM -28.1600 152.8940 201° Southwest 434 499 27,500 1,920 Climbing FlightAware ADS-B
Tue 02:03:23 AM -28.2310 152.8620 202° Southwest 441 507 28,700 1,714 Climbing FlightAware ADS-B
Tue 02:03:53 AM -28.2920 152.8350 201° Southwest 448 516 29,500 1,600 Climbing FlightAware ADS-B
Tue 02:04:23 AM -28.3517 152.8081 201° Southwest 450 518 30,300 1,714 Climbing Aus ATC (RADAR)
Tue 02:04:28 AM -28.3610 152.8040 201° Southwest 454 522 30,500 2,100 Climbing FlightAware ADS-B
Tue 02:05:03 AM -28.4300 152.7730 202° Southwest 451 519 31,700 2,000 Climbing FlightAware ADS-B
Tue 02:05:43 AM -28.5070 152.7390 201° Southwest 448 516 33,000 2,057 Climbing FlightAware ADS-B
Tue 02:06:13 AM -28.5650 152.7130 201° Southwest 442 509 34,100 2,031 Climbing FlightAware ADS-B
Tue 02:06:48 AM -28.6310 152.6830 202° Southwest 435 501 35,200 1,920 Climbing FlightAware ADS-B
Tue 02:07:28 AM -28.7050 152.6500 201° Southwest 425 489 36,500 1,971 Climbing FlightAware ADS-B
Tue 02:07:58 AM -28.7570 152.6270 201° Southwest 416 479 37,500 1,385 Climbing FlightAware ADS-B
Tue 02:08:33 AM -28.8210 152.5980 202° Southwest 413 475 38,000 429 Climbing FlightAware ADS-B
Tue 02:09:08 AM -28.8820 152.5700 202° Southwest 415 478 38,000  Level FlightAware ADS-B
Tue 02:09:43 AM -28.9420 152.5430 201° Southwest 415 478 38,000  Level FlightAware ADS-B
Tue 02:10:18 AM -29.0060 152.5140 202° Southwest 415 478 38,000  Level FlightAware ADS-B
Tue 02:10:53 AM -29.0670 152.4870 201° Southwest 415 478 38,000  Level FlightAware ADS-B
Tue 02:11:38 AM -29.1510 152.4490 202° Southwest 415 478 38,000  Level FlightAware ADS-B
Tue 02:12:15 AM -29.2140 152.4200 202° Southwest 416 479 38,000  Level FlightAware ADS-B
Tue 02:12:44 AM -29.2650 152.3970 201° Southwest 416 479 38,000  Level FlightAware ADS-B
Tue 02:13:23 AM -29.3360 152.3650 201° Southwest 415 478 38,000  Level FlightAware ADS-B
Tue 02:13:58 AM -29.4030 152.3340 202° Southwest 414 476 38,000  Level FlightAware ADS-B
Tue 02:14:33 AM -29.4660 152.3060 201° Southwest 414 476 38,000  Level FlightAware ADS-B
Tue 02:15:13 AM -29.5360 152.2740 202° Southwest 415 478 38,000  Level FlightAware ADS-B
Tue 02:15:48 AM -29.5950 152.2470 202° Southwest 414 476 38,000  Level FlightAware ADS-B
Tue 02:16:23 AM -29.6580 152.2180 202° Southwest 414 476 38,000  Level FlightAware ADS-B
Tue 02:16:58 AM -29.7240 152.1880 202° Southwest 415 478 38,000  Level FlightAware ADS-B
Tue 02:17:33 AM -29.7810 152.1620 202° Southwest 413 475 38,000  Level FlightAware ADS-B
Tue 02:18:08 AM -29.8440 152.1330 202° Southwest 413 475 38,000  Level FlightAware ADS-B
Tue 02:18:43 AM -29.9040 152.1050 202° Southwest 412 474 38,000 -176 Level FlightAware ADS-B
Tue 02:19:16 AM -29.9698 152.0746 202° Southwest 412 474 37,800  Descending Aus ATC (RADAR)
Tue 02:19:18 AM -29.9730 152.0730 202° Southwest 413 475 38,000 324 Climbing FlightAware ADS-B
Tue 02:19:53 AM -30.0340 152.0450 202° Southwest 413 475 38,000  Level FlightAware ADS-B
Tue 02:20:31 AM -30.0940 152.0190 201° Southwest 413 475 38,000  Level FlightAware ADS-B
Tue 02:21:07 AM -30.1480 151.9940 202° Southwest 413 475 38,000 -160 Level FlightAware ADS-B
Tue 02:21:46 AM -30.2351 151.9517 202° Southwest 410 472 37,800  Descending Aus ATC (RADAR)
Tue 02:22:10 AM -30.2750 151.9340 202° Southwest 403 464 38,000 197 Climbing FlightAware ADS-B
Tue 02:22:47 AM -30.3290 151.9090 202° Southwest 403 464 38,000 -293 Level FlightAware ADS-B
Tue 02:22:51 AM -30.3495 151.8982 202° Southwest 410 472 37,800  Descending Aus ATC (RADAR)
Tue 02:23:25 AM -30.4100 151.8710 202° Southwest 403 464 38,000 174 Climbing FlightAware ADS-B
Tue 02:24:00 AM -30.4720 151.8430 201° Southwest 412 474 38,000  Level FlightAware ADS-B
Tue 02:24:40 AM -30.5360 151.8130 202° Southwest 413 475 38,000  Level FlightAware ADS-B
Tue 02:25:15 AM -30.6040 151.7810 202° Southwest 415 478 38,000  Level FlightAware ADS-B
Tue 02:25:50 AM -30.6610 151.7540 202° Southwest 415 478 38,000  Level FlightAware ADS-B
Tue 02:26:25 AM -30.7230 151.7250 202° Southwest 415 478 38,000  Level FlightAware ADS-B
Tue 02:27:00 AM -30.7890 151.6940 202° Southwest 415 478 38,000  Level FlightAware ADS-B
Tue 02:27:35 AM -30.8490 151.6660 202° Southwest 615 708 38,000  Level FlightAware ADS-B
Tue 02:28:12 AM -30.9110 151.6370 202° Southwest 415 478 38,000  Level FlightAware ADS-B
Tue 02:28:42 AM -30.9620 151.6130 202° Southwest 415 478 38,000  Level FlightAware ADS-B
Tue 02:29:20 AM -31.0390 151.5770 202° Southwest 415 478 38,000 -88 Level FlightAware ADS-B
Tue 02:29:50 AM -31.0951 151.5487 202° Southwest 414 476 37,900  Descending Aus ATC (RADAR)
Tue 02:29:57 AM -31.1010 151.5470 202° Southwest 415 478 38,000 122 Climbing FlightAware ADS-B
Tue 02:30:39 AM -31.1770 151.5110 202° Southwest 415 478 38,000  Level FlightAware ADS-B
Tue 02:31:11 AM -31.2350 151.4840 202° Southwest 416 479 38,000 -169 Level FlightAware ADS-B
Tue 02:31:50 AM -31.3096 151.4499 202° Southwest 413 475 37,800  Descending Aus ATC (RADAR)
Tue 02:31:55 AM -31.3110 151.4480 202° Southwest 415 478 38,000 255 Climbing FlightAware ADS-B
Tue 02:32:37 AM -31.3850 151.4130 202° Southwest 415 478 38,000  Level FlightAware ADS-B
Tue 02:33:14 AM -31.4540 151.3820 201° Southwest 418 481 38,000  Level FlightAware ADS-B
Tue 02:33:45 AM -31.5100 151.3570 201° Southwest 417 480 38,000  Level FlightAware ADS-B
Tue 02:34:21 AM -31.5730 151.3290 201° Southwest 417 480 38,000 -86 Level FlightAware ADS-B
Tue 02:34:55 AM -31.6420 151.2989 201° Southwest 416 479 37,900  Descending Aus ATC (RADAR)
Tue 02:34:56 AM -31.6380 151.3000 201° Southwest 416 479 38,000 176 Climbing FlightAware ADS-B
Tue 02:35:29 AM -31.6990 151.2730 201° Southwest 418 481 38,000  Level FlightAware ADS-B
Tue 02:36:06 AM -31.7640 151.2430 201° Southwest 422 486 38,000  Level FlightAware ADS-B
Tue 02:36:40 AM -31.8280 151.2150 200° South 426 490 38,000 -91 Level FlightAware ADS-B
Tue 02:37:12 AM -31.8932 151.1901 200° South 426 490 37,900  Descending Aus ATC (RADAR)
Tue 02:37:17 AM -31.8970 151.1910 200° South 437 503 38,000  Climbing FlightAware ADS-B
Tue 02:37:47 AM -31.9640 151.1818 200° South 431 496 37,900  Descending Aus ATC (RADAR)
Tue 02:37:52 AM -31.9680 151.1820 200° South 437 503 38,000 154 Climbing FlightAware ADS-B
Tue 02:38:26 AM -32.0350 151.1750 185° South 435 501 38,000  Level FlightAware ADS-B
Tue 02:39:00 AM -32.1060 151.1680 185° South 434 499 38,000  Level FlightAware ADS-B
Tue 02:39:35 AM -32.1750 151.1600 186° South 430 495 38,000  Level FlightAware ADS-B
Tue 02:40:10 AM -32.2450 151.1530 185° South 428 493 38,000 -507 Level FlightAware ADS-B
Tue 02:40:46 AM -32.3160 151.1450 185° South 419 482 37,400 -1,703 Descending FlightAware ADS-B
Tue 02:41:24 AM -32.3880 151.1370 185° South 418 481 35,900 -2,595 Descending FlightAware ADS-B
Tue 02:42:00 AM -32.4590 151.1290 185° South 424 488 34,200 -2,862 Descending FlightAware ADS-B
Tue 02:42:29 AM -32.5160 151.1230 185° South 430 495 32,800 -3,000 Descending FlightAware ADS-B
Tue 02:43:06 AM -32.5890 151.1150 185° South 439 505 30,900 -3,760 Descending FlightAware ADS-B
Tue 02:43:44 AM -32.6700 151.1070 185° South 457 526 28,100 -4,056 Descending FlightAware ADS-B
Tue 02:44:17 AM -32.7450 151.0980 186° South 459 528 26,100 -3,000 Descending FlightAware ADS-B
Tue 02:44:52 AM -32.8150 151.0910 185° South 445 512 24,700 -2,486 Descending FlightAware ADS-B
Tue 02:45:27 AM -32.8890 151.0820 186° South 433 498 23,200 -2,314 Descending FlightAware ADS-B
Tue 02:46:02 AM -32.9540 151.0750 185° South 423 487 22,000 -2,143 Descending FlightAware ADS-B
Tue 02:46:37 AM -33.0230 151.0680 185° South 408 470 20,700 -2,314 Descending FlightAware ADS-B
Tue 02:47:12 AM -33.0880 151.0600 186° South 399 459 19,300 -2,400 Descending FlightAware ADS-B
Tue 02:47:47 AM -33.1510 151.0530 185° South 393 452 17,900 -2,314 Descending FlightAware ADS-B
Tue 02:48:22 AM -33.2100 151.0470 185° South 386 444 16,600 -2,400 Descending FlightAware ADS-B
Tue 02:48:57 AM -33.2780 151.0520 176° South 389 448 15,100 -2,492 Descending FlightAware ADS-B
Tue 02:49:27 AM -33.3310 151.0620 171° South 383 441 13,900 -2,400 Descending FlightAware ADS-B
Tue 02:50:07 AM -33.4010 151.0750 171° South 375 432 12,300 -2,400 Descending FlightAware ADS-B
Tue 02:50:42 AM -33.4610 151.0870 171° South 370 426 10,900 -2,057 Descending FlightAware ADS-B
Tue 02:51:17 AM -33.5180 151.0980 171° South 349 402 9,900 -1,467 Descending FlightAware ADS-B
Tue 02:51:27 AM -33.5280 151.1000 171° South 348 400 9,800 -857 Descending FlightAware ADS-B
Tue 02:51:52 AM -33.5730 151.1080 172° South 332 382 9,400 -800 Descending FlightAware ADS-B
Tue 02:52:12 AM -33.6020 151.1160 167° South 327 376 9,200 -600 Descending FlightAware ADS-B
Tue 02:52:22 AM -33.6160 151.1270 147° Southeast 331 381 9,100 -800 Descending FlightAware ADS-B
Tue 02:52:27 AM -33.6210 151.1320 140° Southeast 332 382 9,000 -900 Descending FlightAware ADS-B
Tue 02:52:42 AM -33.6370 151.1480 140° Southeast 329 379 8,800 -882 Descending FlightAware ADS-B
Tue 02:53:01 AM -33.6610 151.1730 139° Southeast 330 380 8,500 -923 Descending FlightAware ADS-B
Tue 02:53:21 AM -33.6850 151.1980 139° Southeast 325 374 8,200 -913 Descending FlightAware ADS-B
Tue 02:53:47 AM -33.7130 151.2270 139° Southeast 320 368 7,800 -913 Descending FlightAware ADS-B
Tue 02:54:07 AM -33.7350 151.2500 139° Southeast 314 361 7,500 -923 Descending FlightAware ADS-B
Tue 02:54:26 AM -33.7570 151.2730 139° Southeast 309 356 7,200 -1,050 Descending FlightAware ADS-B
Tue 02:54:47 AM -33.7780 151.2950 139° Southeast 311 358 6,800 -1,317 Descending FlightAware ADS-B
Tue 02:55:07 AM -33.7970 151.3210 131° Southeast 313 360 6,300 -1,400 Descending FlightAware ADS-B
Tue 02:55:17 AM -33.8020 151.3360 112° Southeast 310 357 6,100 -1,200 Descending FlightAware ADS-B
Tue 02:55:22 AM -33.8030 151.3450 98° East 307 353 6,000 -1,800 Descending FlightAware ADS-B
Tue 02:55:27 AM -33.8040 151.3530 99° East 305 351 5,800 -1,440 Descending FlightAware ADS-B
Tue 02:55:47 AM -33.8020 151.3820 85° East 303 349 5,400 -1,467 Descending FlightAware ADS-B
Tue 02:56:12 AM -33.8120 151.4280 105° East 299 344 4,700 -1,500 Descending FlightAware ADS-B
Tue 02:56:23 AM -33.8200 151.4370 137° Southeast 294 338 4,500 -1,200 Descending FlightAware ADS-B
Tue 02:56:32 AM -33.8340 151.4460 152° Southeast 281 323 4,300 -1,286 Descending FlightAware ADS-B
Tue 02:56:37 AM -33.8410 151.4480 167° South 281 323 4,200 -474 Descending FlightAware ADS-B
Tue 02:57:10 AM -33.8740 151.4350 198° South 238 274 4,000 -409 Descending FlightAware ADS-B
Tue 02:57:21 AM -33.8810 151.4230 235° Southwest 219 252 3,900 -706 Descending FlightAware ADS-B
Tue 02:57:27 AM -33.8830 151.4160 251° West 211 243 3,800 -600 Descending FlightAware ADS-B
Tue 02:57:41 AM -33.8870 151.4020 251° West 205 236 3,700 -667 Descending FlightAware ADS-B
Tue 02:58:03 AM -33.8930 151.3780 253° West 184 212 3,400 -818 Descending FlightAware ADS-B
Tue 02:58:25 AM -33.8980 151.3590 252° West 173 199 3,100 -878 Descending FlightAware ADS-B
Tue 02:58:44 AM -33.9010 151.3430 257° West 162 186 2,800 -938 Descending FlightAware ADS-B
Tue 02:58:57 AM -33.9040 151.3310 253° West 157 181 2,600 -774 Descending FlightAware ADS-B
Tue 02:59:15 AM -33.9080 151.3160 252° West 151 174 2,400 -706 Descending FlightAware ADS-B
Tue 02:59:48 AM -33.9140 151.2890 255° West 136 157 2,000 -764 Descending FlightAware ADS-B
Tue 03:00:10 AM -33.9180 151.2750 251° West 134 154 1,700 -625 Descending FlightAware ADS-B
Tue 03:00:36 AM -33.9220 151.2560 256° West 127 146 1,500 -667 Descending FlightAware ADS-B
Tue 03:00:55 AM -33.9260 151.2410 252° West 132 152 1,200 -649 Descending FlightAware ADS-B
Tue 03:01:13 AM -33.9280 151.2330 253° West 133 153 1,100 -310 Descending FlightAware ADS-B
Tue 03:01:53 AM -33.9340 151.2060 255° West 126 145 900 -563 Descending FlightAware ADS-B
Tue 03:02:17 AM -33.9360 151.1950 258° West 137 158 500 -1,000 Descending FlightAware ADS-B
Tue 03:02:44 AM -33.9420 151.1730 252° West 140 161 -1,111 Descending FlightAware ADS-B
Tue 03:04:17 AM -33.9400 151.1720 59° Northeast 140 161  Level FlightAware ADS-B
Tue 03:05:22 AM -33.9390 151.1770 90° East 140 161  Level FlightAware ADS-B

Login

Don't have an account? Register now (free) for customized features, flight alerts, and more!